Time;durP1;ratioP1;P1;durP2;ratioP2;P2;SDS_P1;SDS_P2;PMS_P1;PMS_P2;Temp;Humidity;BMP_temperature;BMP_pressure;BME280_temperature;BME280_humidity;BME280_pressure;Samples;Min_cycle;Max_cycle;Signal;HPM_P1;HPM_P2
2022/10/10 00:00:31;;;;;;;6.57;1.83;;;;;;;14.90;42.94;99604.50;4453258;32;20409;-81
2022/10/10 00:02:56;;;;;;;5.85;1.60;;;;;;;14.90;43.22;99607.16;4453683;32;20111;-82
2022/10/10 00:05:21;;;;;;;7.03;1.92;;;;;;;15.01;43.01;99602.06;4454240;32;20077;-82
2022/10/10 00:07:47;;;;;;;6.78;1.52;;;;;;;15.08;43.20;99605.19;4453825;32;20101;-81
2022/10/10 00:10:12;;;;;;;5.00;1.77;;;;;;;15.11;42.57;99607.66;4454422;32;20510;-82
2022/10/10 00:12:38;;;;;;;6.60;1.77;;;;;;;15.10;42.81;99601.50;4453725;32;20116;-82
2022/10/10 00:15:04;;;;;;;6.03;1.62;;;;;;;15.11;42.69;99605.84;4453803;32;20097;-82
2022/10/10 00:17:29;;;;;;;4.93;1.60;;;;;;;15.08;43.00;99598.06;4453687;32;20085;-80
2022/10/10 00:19:55;;;;;;;5.75;1.70;;;;;;;15.10;42.80;99595.31;4452772;32;20108;-81
2022/10/10 00:22:20;;;;;;;7.78;1.70;;;;;;;15.00;41.72;99600.34;4454127;32;20128;-82
2022/10/10 00:24:45;;;;;;;5.32;1.37;;;;;;;15.05;41.90;99594.78;4453679;32;20128;-80
2022/10/10 00:27:11;;;;;;;5.75;1.77;;;;;;;15.07;41.43;99592.88;4453687;32;20081;-81
2022/10/10 00:29:36;;;;;;;4.87;1.40;;;;;;;15.11;41.71;99599.69;4452230;32;20436;-82
2022/10/10 00:32:02;;;;;;;6.50;1.85;;;;;;;15.08;42.12;99595.41;4453859;32;20125;-81
2022/10/10 00:34:28;;;;;;;8.80;1.83;;;;;;;15.07;42.18;99592.88;4452305;32;20119;-81
2022/10/10 00:36:53;;;;;;;4.82;1.40;;;;;;;15.08;42.22;99590.09;4453832;32;20092;-81
2022/10/10 00:39:18;;;;;;;6.10;1.37;;;;;;;15.04;41.86;99587.75;4452891;32;20085;-82
2022/10/10 00:41:44;;;;;;;7.82;1.48;;;;;;;15.06;41.95;99581.37;4453955;32;20106;-81
2022/10/10 00:44:12;;;;;;;6.70;1.60;;;;;;;15.02;41.92;99582.53;4453498;32;20152;-82
2022/10/10 00:46:40;;;;;;;;;;;;;;;14.56;41.59;99587.84;4455361;32;20115;-82
2022/10/10 00:49:20;;;;;;;5.77;1.40;;;;;;;14.47;41.59;99586.62;4454454;32;19983;-81
2022/10/10 00:51:46;;;;;;;4.75;1.48;;;;;;;14.32;42.12;99580.38;4454753;32;20177;-81
2022/10/10 00:54:13;;;;;;;4.05;1.55;;;;;;;14.54;41.56;99582.66;4454303;32;20568;-81
2022/10/10 00:56:42;;;;;;;5.60;1.27;;;;;;;14.72;41.98;99582.56;4454832;32;20135;-81
2022/10/10 00:59:10;;;;;;;7.12;1.62;;;;;;;14.21;42.54;99574.00;4455673;32;20125;-82
2022/10/10 01:01:36;;;;;;;5.00;1.40;;;;;;;14.56;41.67;99566.66;4454479;32;20758;-82
2022/10/10 01:04:02;;;;;;;5.85;1.50;;;;;;;14.04;42.67;99575.81;4454428;32;20113;-81
2022/10/10 01:06:28;;;;;;;4.22;1.30;;;;;;;14.33;42.34;99573.28;4455593;32;20088;-81
2022/10/10 01:08:53;;;;;;;6.85;1.50;;;;;;;14.49;42.82;99575.94;4455965;32;20407;-82
2022/10/10 01:11:37;;;;;;;7.22;1.50;;;;;;;14.10;43.08;99571.94;4455308;32;20475;-82
2022/10/10 01:14:21;;;;;;;4.22;1.27;;;;;;;14.25;42.88;99570.22;4456038;32;20111;-83
2022/10/10 01:17:11;;;;;;;6.60;1.60;;;;;;;14.38;42.53;99560.63;4455244;32;20119;-81
2022/10/10 01:20:15;;;;;;;6.18;1.40;;;;;;;14.36;42.62;99571.31;4430796;32;20101;-81
2022/10/10 01:22:53;;;;;;;5.20;1.35;;;;;;;13.81;43.46;99573.56;4422886;32;20117;-82
2022/10/10 01:25:27;;;;;;;6.18;1.58;;;;;;;13.82;43.50;99564.72;4409689;32;20254;-82
2022/10/10 01:28:29;;;;;;;5.32;1.67;;;;;;;13.90;42.80;99565.97;4409723;32;20093;-83
2022/10/10 01:30:56;;;;;;;4.32;1.37;;;;;;;14.18;42.41;99560.91;4422360;32;20141;-82
2022/10/10 01:33:31;;;;;;;4.82;1.45;;;;;;;14.12;42.41;99564.78;4410060;32;20133;-82
2022/10/10 01:36:18;;;;;;;4.35;1.20;;;;;;;14.28;42.59;99562.97;4398404;32;20140;-82
2022/10/10 01:39:16;;;;;;;3.47;1.30;;;;;;;14.31;43.09;99554.84;4409950;32;20192;-82
2022/10/10 01:42:17;;;;;;;4.78;1.27;;;;;;;14.32;41.96;99558.34;4400377;32;20109;-82
2022/10/10 01:44:43;;;;;;;5.07;1.35;;;;;;;14.38;42.29;99562.44;4416694;32;20910;-83
2022/10/10 01:47:10;;;;;;;5.75;1.40;;;;;;;13.83;43.34;99561.97;4421899;32;20159;-83
2022/10/10 01:49:35;;;;;;;5.22;1.52;;;;;;;14.25;42.52;99549.03;4422557;32;20174;-82
2022/10/10 01:52:28;;;;;;;6.40;1.70;;;;;;;14.33;42.37;99546.78;4408875;32;20109;-82
2022/10/10 01:55:21;;;;;;;7.28;1.85;;;;;;;14.28;41.83;99549.72;4455545;32;20589;-82
2022/10/10 01:58:02;;;;;;;6.12;1.87;;;;;;;14.19;41.84;99542.28;4454788;32;20957;-83
2022/10/10 02:00:31;;;;;;;8.25;1.50;;;;;;;14.31;41.97;99552.19;4455776;32;20296;-83
2022/10/10 02:03:03;;;;;;;5.93;1.50;;;;;;;13.88;42.70;99551.97;4453647;32;20116;-82
2022/10/10 02:05:33;;;;;;;4.82;1.40;;;;;;;14.23;41.77;99546.47;4454004;32;20120;-82
2022/10/10 02:08:03;;;;;;;5.18;1.62;;;;;;;14.27;41.56;99555.09;4455876;32;20089;-84
2022/10/10 02:10:31;;;;;;;5.12;1.52;;;;;;;14.31;42.21;99557.50;4450568;32;20408;-82
2022/10/10 02:12:58;;;;;;;5.78;1.65;;;;;;;14.17;41.88;99557.41;4454171;32;20092;-82
2022/10/10 02:15:25;;;;;;;5.30;1.60;;;;;;;14.09;42.06;99552.53;4454010;32;20113;-83
2022/10/10 02:17:51;;;;;;;6.78;1.40;;;;;;;13.73;43.78;99552.81;4453807;32;20653;-82
2022/10/10 02:20:20;;;;;;;4.87;1.35;;;;;;;14.14;42.87;99545.19;4453833;32;20085;-82
2022/10/10 02:22:46;;;;;;;7.10;1.77;;;;;;;14.14;43.07;99549.66;4453601;32;20089;-83
2022/10/10 02:25:12;;;;;;;5.37;1.40;;;;;;;14.27;42.78;99552.44;4454187;32;20191;-83
2022/10/10 02:27:45;;;;;;;6.55;1.80;;;;;;;14.26;43.31;99546.28;4453579;32;20093;-81
2022/10/10 02:30:12;;;;;;;5.12;1.37;;;;;;;14.34;42.47;99549.34;4454344;32;20143;-82
2022/10/10 02:32:45;;;;;;;4.45;1.30;;;;;;;14.33;42.42;99555.59;4453388;32;20099;-82
2022/10/10 02:35:17;;;;;;;8.18;1.65;;;;;;;14.37;42.72;99550.97;4454271;32;20089;-82
2022/10/10 02:37:44;;;;;;;3.72;1.60;;;;;;;14.35;42.80;99551.06;4453431;32;20492;-82
2022/10/10 02:40:11;;;;;;;4.28;1.70;;;;;;;14.34;42.25;99552.00;4454188;32;20167;-82
2022/10/10 02:42:37;;;;;;;7.85;2.42;;;;;;;14.39;42.27;99553.53;4453580;32;20127;-81
2022/10/10 02:45:04;;;;;;;6.87;1.55;;;;;;;14.38;42.41;99557.13;4453797;32;20112;-83
2022/10/10 02:47:29;;;;;;;5.03;1.42;;;;;;;14.30;42.66;99558.41;4454785;32;20105;-82
2022/10/10 02:49:54;;;;;;;6.62;1.73;;;;;;;13.74;44.17;99557.19;4453883;32;20131;-82
2022/10/10 02:52:20;;;;;;;5.95;1.67;;;;;;;14.05;43.40;99553.66;4454825;32;20456;-82
2022/10/10 02:54:45;;;;;;;6.57;1.85;;;;;;;14.05;43.26;99560.78;4454775;32;20115;-82
2022/10/10 02:57:11;;;;;;;6.40;1.90;;;;;;;14.10;44.11;99561.34;4454780;32;20452;-81
2022/10/10 02:59:36;;;;;;;7.95;2.10;;;;;;;14.02;43.58;99552.97;4453583;32;20228;-82
2022/10/10 03:02:02;;;;;;;6.80;1.55;;;;;;;14.18;43.23;99558.25;4455101;32;20084;-85
2022/10/10 03:04:27;;;;;;;6.25;2.00;;;;;;;14.03;43.60;99549.41;4454612;32;20361;-84
2022/10/10 03:06:53;;;;;;;6.05;1.70;;;;;;;14.02;43.85;99548.53;4455044;32;20429;-85
2022/10/10 03:09:19;;;;;;;5.55;1.58;;;;;;;14.04;43.63;99551.97;4453100;32;20093;-85
2022/10/10 03:11:44;;;;;;;6.10;1.65;;;;;;;13.88;43.77;99549.31;4454973;32;20068;-84
2022/10/10 03:14:10;;;;;;;6.45;1.73;;;;;;;14.08;43.90;99544.69;4453223;32;20119;-84
2022/10/10 03:16:35;;;;;;;6.12;1.90;;;;;;;14.05;43.74;99544.88;4455300;32;20084;-83
2022/10/10 03:19:02;;;;;;;5.32;1.70;;;;;;;14.16;43.62;99545.97;4454524;32;20093;-83
2022/10/10 03:21:27;;;;;;;8.55;1.95;;;;;;;14.04;43.63;99545.81;4455039;32;20115;-84
2022/10/10 03:23:53;;;;;;;5.15;1.65;;;;;;;14.21;43.25;99544.84;4454362;32;20097;-85
2022/10/10 03:26:18;;;;;;;8.82;1.90;;;;;;;14.00;43.59;99541.63;4454727;32;20073;-83
2022/10/10 03:28:44;;;;;;;6.82;1.60;;;;;;;14.15;43.91;99540.75;4454470;32;20089;-83
2022/10/10 03:31:09;;;;;;;5.37;1.80;;;;;;;14.22;44.04;99539.47;4454678;32;20103;-84
2022/10/10 03:33:34;;;;;;;8.75;2.30;;;;;;;14.16;44.16;99540.66;4454491;32;20135;-85
2022/10/10 03:36:00;;;;;;;5.57;1.62;;;;;;;14.09;43.57;99541.94;4454243;32;20093;-85
2022/10/10 03:38:25;;;;;;;6.15;1.87;;;;;;;14.18;43.49;99532.62;4454686;32;20093;-85
2022/10/10 03:40:51;;;;;;;6.60;1.90;;;;;;;14.13;43.64;99540.00;4452954;32;20088;-84
2022/10/10 03:43:16;;;;;;;9.23;2.10;;;;;;;14.29;43.54;99539.94;4453746;32;20096;-84
2022/10/10 03:45:43;;;;;;;7.05;1.75;;;;;;;13.69;44.64;99538.03;4453475;32;20131;-83
2022/10/10 03:48:09;;;;;;;5.90;1.80;;;;;;;13.89;44.06;99537.78;4453527;32;20413;-85
2022/10/10 03:50:35;;;;;;;6.68;2.08;;;;;;;13.93;44.09;99539.31;4452799;32;20111;-85
2022/10/10 03:53:00;;;;;;;8.73;1.80;;;;;;;14.10;44.00;99535.72;4454660;32;20119;-84
2022/10/10 03:55:26;;;;;;;5.55;1.65;;;;;;;13.71;44.49;99539.69;4453837;32;20094;-84
2022/10/10 03:57:51;;;;;;;9.77;2.25;;;;;;;13.75;44.79;99541.22;4452776;32;20128;-83
2022/10/10 04:00:19;;;;;;;5.12;1.60;;;;;;;13.86;44.55;99532.66;4452877;32;20115;-83
2022/10/10 04:02:44;;;;;;;8.27;1.98;;;;;;;13.69;45.00;99538.88;4454510;32;20104;-83
2022/10/10 04:05:10;;;;;;;5.37;1.60;;;;;;;13.47;45.64;99541.03;4453535;32;20350;-83
2022/10/10 04:07:35;;;;;;;6.10;1.80;;;;;;;13.72;45.04;99536.06;4454938;32;20115;-84
2022/10/10 04:10:01;;;;;;;7.90;1.80;;;;;;;13.46;45.33;99532.25;4453609;32;20453;-83
2022/10/10 04:12:26;;;;;;;7.85;1.90;;;;;;;13.77;44.96;99527.87;4452135;32;20394;-84
2022/10/10 04:14:52;;;;;;;8.00;1.92;;;;;;;13.86;44.44;99531.81;4440642;32;20417;-83
2022/10/10 04:17:17;;;;;;;5.47;1.60;;;;;;;13.62;44.68;99532.25;4454750;32;20145;-84
2022/10/10 04:19:42;;;;;;;7.22;2.00;;;;;;;13.77;44.55;99528.75;4455129;32;20138;-84
2022/10/10 04:22:08;;;;;;;6.37;1.70;;;;;;;13.87;44.83;99530.84;4456626;32;20093;-83
2022/10/10 04:24:33;;;;;;;5.55;1.83;;;;;;;13.85;45.18;99528.31;4455455;32;20101;-84
2022/10/10 04:26:59;;;;;;;5.53;1.62;;;;;;;13.67;45.27;99534.63;4456787;32;20111;-84
2022/10/10 04:29:24;;;;;;;6.25;1.70;;;;;;;13.76;44.89;99523.53;4456591;32;20081;-83
2022/10/10 04:31:50;;;;;;;8.07;2.03;;;;;;;13.84;45.24;99525.75;4455385;32;20169;-84
2022/10/10 04:34:15;;;;;;;5.32;1.87;;;;;;;13.66;44.81;99535.56;4456492;32;20115;-83
2022/10/10 04:36:41;;;;;;;9.15;1.73;;;;;;;13.48;45.65;99532.12;4456617;32;20077;-84
2022/10/10 04:39:06;;;;;;;6.70;1.62;;;;;;;13.70;45.03;99515.94;4455447;32;20085;-84
2022/10/10 04:41:32;;;;;;;4.28;1.60;;;;;;;13.36;45.71;99531.84;4456592;32;20101;-84
2022/10/10 04:43:57;;;;;;;6.20;1.83;;;;;;;13.46;45.28;99532.25;4455432;32;20381;-83
2022/10/10 04:46:23;;;;;;;7.15;1.90;;;;;;;12.90;46.86;99536.06;4456371;32;20144;-84
2022/10/10 04:48:48;;;;;;;6.53;1.80;;;;;;;13.36;46.25;99531.00;4455371;32;20101;-83
2022/10/10 04:51:14;;;;;;;6.12;1.80;;;;;;;13.57;45.46;99536.94;4456572;32;20119;-83
2022/10/10 04:53:39;;;;;;;5.22;1.65;;;;;;;13.20;46.00;99532.75;4456402;32;20127;-83
2022/10/10 04:56:05;;;;;;;5.35;1.73;;;;;;;13.27;45.75;99534.09;4456491;32;20097;-83
2022/10/10 04:58:30;;;;;;;6.25;1.52;;;;;;;13.43;45.38;99535.03;4455375;32;20130;-83
2022/10/10 05:00:56;;;;;;;4.47;1.60;;;;;;;13.18;46.50;99532.81;4455276;32;20440;-85
2022/10/10 05:03:22;;;;;;;6.15;1.85;;;;;;;13.26;46.47;99532.41;4456492;32;20093;-80
2022/10/10 05:05:48;;;;;;;7.30;1.60;;;;;;;13.36;46.10;99539.78;4456466;32;20107;-87
2022/10/10 05:08:14;;;;;;;5.97;1.60;;;;;;;13.40;46.20;99540.47;4456319;32;20420;-87
2022/10/10 05:10:40;;;;;;;8.07;2.08;;;;;;;13.55;45.46;99539.66;4455410;32;20155;-86
2022/10/10 05:13:14;;;;;;;6.78;1.90;;;;;;;13.74;45.02;99544.78;4456595;32;20119;-87
2022/10/10 05:15:39;;;;;;;4.68;1.65;;;;;;;13.76;44.82;99534.13;4455281;32;20393;-88
2022/10/10 05:18:05;;;;;;;6.87;1.87;;;;;;;13.91;44.59;99535.06;4442441;32;20093;-87
2022/10/10 05:20:31;;;;;;;8.05;1.90;;;;;;;14.06;44.45;99525.38;4456561;32;20349;-87
2022/10/10 05:22:57;;;;;;;6.72;1.85;;;;;;;14.14;44.53;99536.41;4456679;32;20119;-86
2022/10/10 05:25:22;;;;;;;5.37;2.00;;;;;;;13.83;44.61;99532.84;4456534;32;20089;-86
2022/10/10 05:27:48;;;;;;;7.97;1.60;;;;;;;14.09;44.19;99531.34;4455457;32;20081;-86
2022/10/10 05:30:13;;;;;;;5.80;1.70;;;;;;;14.29;43.83;99530.22;4456484;32;20093;-85
2022/10/10 05:32:39;;;;;;;5.37;1.60;;;;;;;14.41;43.45;99525.12;4455814;32;20421;-84
2022/10/10 05:35:05;;;;;;;5.90;1.70;;;;;;;14.38;43.62;99538.56;4442205;32;20132;-84
2022/10/10 05:37:31;;;;;;;6.68;1.85;;;;;;;14.42;43.29;99538.28;4456232;32;20475;-84
2022/10/10 05:39:56;;;;;;;5.22;1.60;;;;;;;14.60;43.35;99536.37;4454992;32;20446;-84
2022/10/10 05:42:22;;;;;;;5.30;1.70;;;;;;;14.70;42.92;99536.72;4456403;32;20088;-84
2022/10/10 05:44:48;;;;;;;6.70;1.85;;;;;;;14.68;42.49;99531.50;4454993;32;20093;-84
2022/10/10 05:47:14;;;;;;;6.87;1.70;;;;;;;14.83;42.28;99536.81;4456066;32;20134;-84
2022/10/10 05:49:39;;;;;;;7.62;2.03;;;;;;;14.31;42.71;99538.94;4456159;32;20101;-83
2022/10/10 05:52:05;;;;;;;5.50;1.83;;;;;;;14.65;42.25;99534.31;4454951;32;20085;-86
2022/10/10 05:54:30;;;;;;;4.32;1.60;;;;;;;14.53;43.63;99545.63;4454699;32;20089;-86
2022/10/10 05:56:56;;;;;;;6.78;1.80;;;;;;;14.87;42.65;99533.91;4456061;32;20097;-85
2022/10/10 05:59:21;;;;;;;5.82;1.90;;;;;;;15.09;42.35;99544.06;4454971;32;20101;-85
2022/10/10 06:01:46;;;;;;;5.60;1.73;;;;;;;14.94;42.29;99543.19;4456120;32;20384;-85
2022/10/10 06:04:12;;;;;;;4.82;1.70;;;;;;;14.89;42.14;99549.72;4454662;32;20365;-85
2022/10/10 06:06:37;;;;;;;6.15;2.05;;;;;;;15.21;42.56;99547.75;4456103;32;20097;-85
2022/10/10 06:09:03;;;;;;;6.47;1.73;;;;;;;15.40;42.12;99536.00;4455802;32;20136;-84
2022/10/10 06:11:28;;;;;;;7.80;2.05;;;;;;;15.40;40.99;99542.16;4456058;32;20143;-87
2022/10/10 06:13:54;;;;;;;6.43;1.60;;;;;;;15.50;41.23;99540.62;4455991;32;20077;-85
2022/10/10 06:16:26;;;;;;;6.35;2.00;;;;;;;15.56;40.51;99543.84;4454479;32;20142;-85
2022/10/10 06:18:52;;;;;;;7.87;1.83;;;;;;;15.62;40.88;99538.16;4454264;32;20109;-85
2022/10/10 06:21:18;;;;;;;8.02;1.80;;;;;;;15.71;40.52;99534.91;4455981;32;20119;-82
2022/10/10 06:23:44;;;;;;;6.57;1.95;;;;;;;15.67;41.04;99539.56;4455887;32;20153;-81
2022/10/10 06:26:09;;;;;;;7.37;1.98;;;;;;;15.39;41.47;99540.44;4454686;32;20166;-83
2022/10/10 06:28:35;;;;;;;6.60;1.60;;;;;;;15.71;41.37;99538.41;4454662;32;20113;-84
2022/10/10 06:31:02;;;;;;;5.70;1.58;;;;;;;15.45;41.22;99537.44;4455914;32;20456;-88
2022/10/10 06:33:28;;;;;;;6.70;1.90;;;;;;;15.80;40.75;99539.69;4455896;32;20089;-86
2022/10/10 06:35:54;;;;;;;6.90;1.83;;;;;;;15.92;40.74;99536.22;4454551;32;20493;-86
2022/10/10 06:38:19;;;;;;;6.60;1.87;;;;;;;15.58;40.78;99531.34;4455803;32;20384;-86
2022/10/10 06:40:46;;;;;;;5.32;1.80;;;;;;;15.97;40.89;99527.94;4456584;32;20088;-87
2022/10/10 06:43:13;;;;;;;6.90;1.80;;;;;;;16.11;40.92;99529.72;4454547;32;20112;-85
2022/10/10 06:45:43;;;;;;;6.50;1.83;;;;;;;16.18;40.44;99536.31;4454680;32;20481;-89
2022/10/10 06:48:12;;;;;;;4.80;1.60;;;;;;;15.40;40.98;99542.16;4454653;32;20478;-89
2022/10/10 06:50:38;;;;;;;6.85;1.85;;;;;;;16.05;40.31;99538.06;4454606;32;20131;-86
2022/10/10 06:53:04;;;;;;;5.50;1.80;;;;;;;16.25;39.75;99534.97;4454678;32;20416;-82
2022/10/10 06:55:29;;;;;;;6.68;2.05;;;;;;;16.36;39.47;99525.41;4454583;32;20084;-81
2022/10/10 06:57:55;;;;;;;5.00;1.50;;;;;;;16.43;39.99;99537.38;4455663;32;20089;-93
2022/10/10 07:00:20;;;;;;;7.65;1.80;;;;;;;16.19;39.75;99539.84;4441604;32;20123;-95
2022/10/10 07:02:46;;;;;;;8.23;2.03;;;;;;;16.26;39.75;99536.69;4455193;32;20445;-91
2022/10/10 07:05:14;;;;;;;7.05;1.67;;;;;;;16.38;39.48;99542.13;4455993;32;20417;-91
2022/10/10 07:07:40;;;;;;;7.53;1.87;;;;;;;16.46;39.29;99529.19;4454599;32;20097;-89
2022/10/10 07:10:06;;;;;;;7.35;2.00;;;;;;;16.49;38.96;99534.28;4455871;32;20085;-90
2022/10/10 07:12:32;;;;;;;5.78;1.90;;;;;;;16.54;39.27;99537.50;4455281;32;20123;-91
2022/10/10 07:14:57;;;;;;;8.07;1.80;;;;;;;15.88;40.50;99532.06;4454434;32;20107;-86
2022/10/10 07:17:22;;;;;;;6.37;1.90;;;;;;;16.29;40.68;99536.47;4454957;32;20418;-85
2022/10/10 07:19:48;;;;;;;6.47;1.80;;;;;;;16.38;40.53;99536.81;4454746;32;20425;-86
2022/10/10 07:22:13;;;;;;;7.62;2.03;;;;;;;16.58;40.62;99533.66;4454080;32;20088;-85
2022/10/10 07:24:39;;;;;;;5.90;1.67;;;;;;;16.60;39.15;99537.06;4455141;32;20447;-86
2022/10/10 07:27:04;;;;;;;7.95;1.87;;;;;;;16.59;39.00;99538.06;4455500;32;20384;-86
2022/10/10 07:29:30;;;;;;;6.53;1.95;;;;;;;16.51;39.13;99535.03;4455419;32;20100;-86
2022/10/10 07:31:56;;;;;;;6.65;1.80;;;;;;;16.60;38.86;99534.41;4454077;32;20097;-87
2022/10/10 07:34:22;;;;;;;8.13;2.10;;;;;;;16.55;39.48;99536.53;4455415;32;20210;-86
2022/10/10 07:36:49;;;;;;;7.25;2.00;;;;;;;16.39;39.45;99538.53;4455199;32;20092;-86
2022/10/10 07:39:20;;;;;;;6.18;2.10;;;;;;;16.55;40.65;99536.53;4455289;32;20488;-86
2022/10/10 07:41:46;;;;;;;8.55;1.92;;;;;;;16.68;40.12;99539.22;4454065;32;20448;-85
2022/10/10 07:44:11;;;;;;;9.73;2.35;;;;;;;16.70;39.68;99538.16;4455066;32;20084;-86
2022/10/10 07:46:37;;;;;;;6.35;2.00;;;;;;;16.71;39.91;99539.03;4455264;32;20374;-86
2022/10/10 07:49:02;;;;;;;7.70;2.08;;;;;;;16.79;39.93;99531.38;4440988;32;20097;-85
2022/10/10 07:51:28;;;;;;;7.65;2.20;;;;;;;16.66;39.90;99538.47;4455128;32;20089;-86
2022/10/10 07:53:53;;;;;;;8.50;2.28;;;;;;;16.82;40.00;99532.97;4454846;32;20202;-86
2022/10/10 07:56:18;;;;;;;8.02;2.10;;;;;;;16.80;39.79;99527.72;4456844;32;20100;-86
2022/10/10 07:58:44;;;;;;;8.15;2.20;;;;;;;16.80;39.69;99532.22;4456805;32;20096;-86
2022/10/10 08:01:11;;;;;;;9.00;2.47;;;;;;;16.47;40.49;99537.03;4456980;32;20081;-86
2022/10/10 08:03:37;;;;;;;9.27;2.62;;;;;;;16.59;40.50;99535.37;4456914;32;20330;-86
2022/10/10 08:06:07;;;;;;;8.13;2.55;;;;;;;16.71;39.96;99534.53;4457108;32;20097;-86
2022/10/10 08:08:33;;;;;;;7.40;2.50;;;;;;;16.71;40.62;99531.88;4456007;32;20092;-86
2022/10/10 08:10:59;;;;;;;8.70;2.67;;;;;;;16.79;40.24;99523.38;4457172;32;20092;-86
2022/10/10 08:13:25;;;;;;;11.48;2.28;;;;;;;16.85;40.68;99530.97;4455845;32;20314;-86
2022/10/10 08:15:52;;;;;;;9.10;2.60;;;;;;;16.64;41.06;99535.06;4455693;32;20445;-86
2022/10/10 08:18:17;;;;;;;7.60;2.50;;;;;;;16.76;40.68;99536.03;4456880;32;20101;-86
2022/10/10 08:20:43;;;;;;;8.77;2.40;;;;;;;16.85;40.15;99538.94;4455595;32;20572;-85
2022/10/10 08:23:08;;;;;;;11.65;2.85;;;;;;;16.90;40.21;99525.31;4455656;32;20097;-86
2022/10/10 08:25:33;;;;;;;7.18;2.50;;;;;;;16.92;40.57;99522.56;4456433;32;20093;-86
2022/10/10 08:27:59;;;;;;;8.23;2.47;;;;;;;16.95;39.92;99523.19;4456760;32;20393;-85
2022/10/10 08:30:24;;;;;;;12.07;3.00;;;;;;;16.94;40.25;99521.53;4456713;32;20096;-85
2022/10/10 08:32:50;;;;;;;9.95;2.65;;;;;;;16.13;41.65;99525.16;4456963;32;20082;-86
2022/10/10 08:35:15;;;;;;;10.75;2.67;;;;;;;16.71;40.66;99520.41;4457047;32;20116;-86
2022/10/10 08:37:41;;;;;;;9.40;2.87;;;;;;;16.82;40.70;99517.03;4450936;32;20109;-85
2022/10/10 08:40:07;;;;;;;9.90;2.42;;;;;;;16.85;40.52;99508.84;4455736;32;20085;-86
2022/10/10 08:42:39;;;;;;;9.00;2.50;;;;;;;15.99;42.83;99517.22;4456054;32;20073;-87
2022/10/10 08:45:12;;;;;;;9.50;2.45;;;;;;;16.70;41.82;99510.69;4455493;32;20127;-84
2022/10/10 08:47:46;;;;;;;7.03;2.10;;;;;;;16.82;40.68;99512.53;4454744;32;20105;-87
2022/10/10 08:50:19;;;;;;;8.98;2.10;;;;;;;16.92;39.52;99509.25;4455872;32;20119;-87
2022/10/10 08:53:04;;;;;;;6.03;2.00;;;;;;;17.02;39.55;99519.16;4448505;32;20158;-87
2022/10/10 08:55:32;;;;;;;7.97;2.15;;;;;;;16.58;39.81;99507.06;4445791;32;20473;-85
2022/10/10 08:58:07;;;;;;;7.72;2.03;;;;;;;16.90;38.54;99499.59;4454365;32;20170;-86
2022/10/10 09:00:37;;;;;;;6.95;1.87;;;;;;;16.67;39.59;99500.28;4455916;32;20139;-85
2022/10/10 09:03:18;;;;;;;7.18;1.80;;;;;;;16.43;40.62;99505.44;4455519;32;20073;-86
2022/10/10 09:06:25;;;;;;;6.68;1.80;;;;;;;16.80;39.83;99498.47;4445281;32;20160;-84
2022/10/10 09:09:20;;;;;;;5.03;1.50;;;;;;;16.78;39.45;99496.88;4451255;32;20127;-85
2022/10/10 09:12:10;;;;;;;7.87;1.90;;;;;;;16.87;38.88;99491.78;4419137;32;20137;-83
2022/10/10 09:14:50;;;;;;;7.22;2.17;;;;;;;16.99;38.13;99486.59;4411745;32;20449;-85
2022/10/10 09:17:39;;;;;;;6.93;1.70;;;;;;;17.17;37.88;99489.75;4409520;32;20413;-84
2022/10/10 09:20:26;;;;;;;6.40;1.75;;;;;;;17.09;37.95;99491.16;4422675;32;20113;-86
2022/10/10 09:23:20;;;;;;;4.85;1.60;;;;;;;17.14;37.53;99490.81;4421805;32;20149;-85
2022/10/10 09:25:59;;;;;;;7.47;1.80;;;;;;;17.09;37.42;99487.62;4422631;32;20098;-84
2022/10/10 09:28:46;;;;;;;4.75;1.60;;;;;;;16.87;38.45;99485.63;4422166;32;20114;-85
2022/10/10 09:31:25;;;;;;;5.22;1.40;;;;;;;16.74;37.26;99476.75;4422950;32;20175;-84
2022/10/10 09:33:56;;;;;;;4.90;1.62;;;;;;;17.18;36.62;99480.81;4421769;32;20117;-85
2022/10/10 09:36:27;;;;;;;4.53;1.10;;;;;;;17.36;36.50;99482.16;4397655;32;20098;-85
2022/10/10 09:38:56;;;;;;;6.65;1.80;;;;;;;17.49;35.61;99477.66;4396909;32;20098;-86
2022/10/10 09:41:32;;;;;;;6.55;1.60;;;;;;;17.44;36.14;99486.94;4409849;32;20395;-85
2022/10/10 09:43:59;;;;;;;5.15;1.58;;;;;;;17.48;35.98;99488.41;4422004;32;20454;-83
2022/10/10 09:46:25;;;;;;;6.93;1.80;;;;;;;17.37;36.05;99489.19;4409434;32;20140;-84
2022/10/10 09:48:52;;;;;;;5.32;1.58;;;;;;;17.55;35.89;99487.00;4432377;32;20124;-85
2022/10/10 09:51:18;;;;;;;4.53;1.60;;;;;;;17.63;35.92;99476.63;4454554;32;20264;-85
2022/10/10 09:53:44;;;;;;;5.53;1.87;;;;;;;17.78;35.68;99476.50;4453799;32;20209;-83
2022/10/10 09:56:17;;;;;;;5.65;1.50;;;;;;;17.73;35.08;99475.97;4455775;32;20089;-85
2022/10/10 09:58:45;;;;;;;5.20;1.45;;;;;;;17.80;34.86;99477.25;4454852;32;20374;-84
2022/10/10 10:01:19;;;;;;;6.12;1.55;;;;;;;17.90;35.08;99474.78;4454360;32;20100;-85
2022/10/10 10:04:10;;;;;;;3.97;1.25;;;;;;;18.03;35.22;99478.25;4454017;32;20089;-84
2022/10/10 10:06:36;;;;;;;4.53;1.65;;;;;;;17.97;34.32;99473.38;4444491;32;20077;-85
2022/10/10 10:09:03;;;;;;;7.62;1.67;;;;;;;18.03;34.32;99470.25;4455176;32;20136;-84
2022/10/10 10:11:38;;;;;;;6.93;1.60;;;;;;;18.02;34.44;99468.53;4455269;32;20096;-83
2022/10/10 10:14:03;;;;;;;5.70;1.60;;;;;;;17.55;34.81;99468.37;4453808;32;20124;-85
2022/10/10 10:16:37;;;;;;;5.65;1.62;;;;;;;17.84;34.78;99474.25;4454216;32;20127;-85
2022/10/10 10:19:05;;;;;;;5.47;1.37;;;;;;;17.41;35.96;99473.84;4453677;32;20113;-85
2022/10/10 10:21:31;;;;;;;5.32;1.52;;;;;;;17.84;35.05;99460.94;4441665;32;20472;-84
2022/10/10 10:23:59;;;;;;;6.43;1.83;;;;;;;17.84;35.30;99460.94;4453866;32;20119;-84
2022/10/10 10:26:40;;;;;;;;;;;;;;;17.94;35.17;99458.44;4454081;32;20101;-85
2022/10/10 10:29:26;;;;;;;7.10;1.85;;;;;;;17.42;35.66;99468.41;4455336;32;19987;-85
2022/10/10 10:31:57;;;;;;;7.32;2.03;;;;;;;17.89;35.45;99457.94;4454207;32;20093;-84
2022/10/10 10:34:45;;;;;;;6.72;1.85;;;;;;;18.03;36.18;99456.91;4442354;32;20123;-85
2022/10/10 10:37:19;;;;;;;6.03;1.65;;;;;;;18.05;35.98;99449.66;4453851;32;20084;-84
2022/10/10 10:39:56;;;;;;;6.68;1.98;;;;;;;18.16;35.19;99444.34;4454090;32;20479;-84
2022/10/10 10:42:25;;;;;;;5.95;1.60;;;;;;;18.24;35.46;99433.94;4442461;32;20114;-86
2022/10/10 10:45:06;;;;;;;5.28;1.67;;;;;;;18.28;35.74;99437.25;4455045;32;20442;-86
2022/10/10 10:47:53;;;;;;;5.10;1.70;;;;;;;18.30;35.23;99429.97;4445595;32;20140;-84
2022/10/10 10:50:49;;;;;;;5.15;1.60;;;;;;;18.44;34.86;99423.56;4440526;32;20127;-84
2022/10/10 10:53:49;;;;;;;8.88;1.73;;;;;;;18.32;35.02;99428.03;4455224;32;20456;-81
2022/10/10 10:56:24;;;;;;;5.85;1.77;;;;;;;18.11;35.62;99421.66;4453453;32;20084;-85
2022/10/10 10:59:02;;;;;;;6.47;1.85;;;;;;;18.37;35.16;99428.53;4454938;32;20088;-84
2022/10/10 11:01:52;;;;;;;7.45;1.80;;;;;;;18.39;34.87;99420.44;4454573;32;20158;-85
2022/10/10 11:04:46;;;;;;;5.28;1.60;;;;;;;18.50;35.31;99423.09;4454023;32;20172;-85
2022/10/10 11:07:20;;;;;;;6.65;2.20;;;;;;;18.57;35.71;99418.16;4454631;32;20089;-86
2022/10/10 11:10:01;;;;;;;7.03;1.87;;;;;;;18.76;34.99;99410.41;4454025;32;20077;-86
2022/10/10 11:12:38;;;;;;;9.68;1.90;;;;;;;18.80;35.37;99413.72;4442063;32;20124;-85
2022/10/10 11:15:18;;;;;;;5.15;1.80;;;;;;;18.84;35.56;99408.00;4455159;32;20122;-85
2022/10/10 11:17:55;;;;;;;8.32;1.80;;;;;;;18.81;35.11;99410.06;4454549;32;20154;-85
2022/10/10 11:20:46;;;;;;;5.60;1.80;;;;;;;18.84;34.17;99402.66;4454062;32;20501;-86
2022/10/10 11:23:18;;;;;;;5.47;1.80;;;;;;;18.95;34.06;99403.62;4442719;32;20105;-86
2022/10/10 11:25:59;;;;;;;6.80;1.90;;;;;;;18.85;34.67;99395.50;4451032;32;20152;-84
2022/10/10 11:28:48;;;;;;;5.20;1.67;;;;;;;18.82;34.35;99393.09;4440243;32;20211;-84
2022/10/10 11:31:30;;;;;;;6.95;1.75;;;;;;;18.72;33.61;99390.25;4453598;32;20452;-86
2022/10/10 11:34:04;;;;;;;5.60;1.40;;;;;;;19.03;33.39;99380.69;4453471;32;20439;-86
2022/10/10 11:36:36;;;;;;;6.80;1.50;;;;;;;19.01;32.42;99377.28;4453323;32;20096;-85
2022/10/10 11:39:14;;;;;;;7.28;1.60;;;;;;;19.15;32.22;99372.66;4453170;32;20084;-85
2022/10/10 11:41:43;;;;;;;5.03;1.50;;;;;;;19.15;31.39;99367.31;4453790;32;20373;-85
2022/10/10 11:44:23;;;;;;;3.85;1.40;;;;;;;19.24;31.44;99369.25;4452814;32;20105;-85
2022/10/10 11:46:59;;;;;;;8.18;1.60;;;;;;;19.21;31.52;99367.66;4454814;32;20119;-85